Terminal Aerodrome Forecast
Issued by NWS

Home | Current Version | Previous Version | Text Only | Print | Product List | Glossary On
Versions: 1 2 3 4 5 6 7 8 9 10 11 12 13 14 15 16 17 18 19 20
000
FTUS46 KMTR 220500
TAFSNS
TAF
KSNS 220520Z 2206/2306 VRB03KT P6SM OVC025
     FM221200 00000KT 6SM BR BKN007 OVC012
     FM221900 29006KT P6SM SCT007 OVC012
     FM230300 VRB03KT P6SM FEW007 BKN011=

USA.gov is the U.S. government's official web portal to all federal, state and local government web resources and services.